Time;durP1;ratioP1;P1;durP2;ratioP2;P2;SDS_P1;SDS_P2;PMS_P1;PMS_P2;Temp;Humidity;BMP_temperature;BMP_pressure;BME280_temperature;BME280_humidity;BME280_pressure;Samples;Min_cycle;Max_cycle;Signal;HPM_P1;HPM_P2
2023/02/22 00:00:35;;;;;;;11.27;4.60;;;8.40;99.90;;;;;;5017774;28;20882;-79
2023/02/22 00:03:02;;;;;;;16.93;4.47;;;8.30;99.90;;;;;;5029344;28;20437;-78
2023/02/22 00:05:30;;;;;;;13.97;5.13;;;8.30;1.00;;;;;;5031317;28;20463;-79
2023/02/22 00:07:59;;;;;;;11.40;3.40;;;8.30;1.00;;;;;;5026764;28;20540;-80
2023/02/22 00:10:28;;;;;;;12.80;3.73;;;8.20;99.90;;;;;;5021673;28;20800;-81
2023/02/22 00:12:55;;;;;;;10.00;3.20;;;8.20;1.00;;;;;;5020104;28;20449;-81
2023/02/22 00:15:27;;;;;;;15.40;4.87;;;8.30;34.60;;;;;;5020413;28;20469;-80
2023/02/22 00:17:55;;;;;;;10.50;3.80;;;8.30;99.90;;;;;;5022054;28;20474;-79
2023/02/22 00:20:23;;;;;;;20.50;5.30;;;8.30;1.00;;;;;;5021434;28;20484;-80
2023/02/22 00:22:52;;;;;;;14.10;6.07;;;8.10;99.90;;;;;;5024250;28;20536;-78
2023/02/22 00:25:20;;;;;;;16.70;6.37;;;8.10;1.00;;;;;;5024118;28;20504;-78
2023/02/22 00:27:51;;;;;;;11.53;4.17;;;8.10;99.90;;;;;;5025336;28;20480;-79
2023/02/22 00:30:22;;;;;;;15.00;4.93;;;8.00;99.90;;;;;;5024838;28;20454;-79
2023/02/22 00:32:50;;;;;;;18.10;5.53;;;8.00;99.90;;;;;;5021677;28;20520;-80
2023/02/22 00:35:20;;;;;;;22.00;6.50;;;7.90;1.00;;;;;;5020916;28;20448;-80
2023/02/22 00:37:48;;;;;;;17.10;5.10;;;7.80;1.00;;;;;;5020617;28;20892;-80
2023/02/22 00:40:17;;;;;;;17.07;5.30;;;7.70;19.20;;;;;;5020381;28;20488;-80
2023/02/22 00:42:45;;;;;;;24.40;11.13;;;7.70;99.90;;;;;;5020347;28;20431;-79
2023/02/22 00:45:15;;;;;;;17.77;6.50;;;7.70;85.30;;;;;;5020298;28;20456;-80
2023/02/22 00:47:42;;;;;;;24.23;6.07;;;7.80;99.90;;;;;;5022406;28;20459;-78
2023/02/22 00:50:10;;;;;;;15.13;5.30;;;7.90;99.90;;;;;;5026198;28;20544;-78
2023/02/22 00:52:38;;;;;;;10.53;3.93;;;7.80;1.00;;;;;;5022796;28;20935;-79
2023/02/22 00:55:07;;;;;;;16.03;4.83;;;7.90;57.80;;;;;;5020992;28;20516;-79
2023/02/22 00:57:34;;;;;;;20.17;5.83;;;7.90;9.40;;;;;;5026872;28;20873;-80
2023/02/22 01:00:10;;;;;;;22.90;5.60;;;7.90;1.00;;;;;;5022612;28;20494;-80
2023/02/22 01:02:38;;;;;;;11.33;4.40;;;8.00;1.00;;;;;;5020251;28;20492;-80
2023/02/22 01:05:06;;;;;;;16.33;4.80;;;8.00;1.00;;;;;;5019817;28;20456;-80
2023/02/22 01:07:33;;;;;;;20.20;4.70;;;8.00;4.00;;;;;;5019364;28;20550;-79
2023/02/22 01:10:00;;;;;;;15.60;5.30;;;7.90;1.00;;;;;;5019551;28;20433;-81
2023/02/22 01:12:28;;;;;;;11.50;4.07;;;8.00;1.00;;;;;;5018660;28;20504;-80
2023/02/22 01:14:55;;;;;;;13.77;3.93;;;8.00;1.00;;;;;;5024644;28;20431;-81
2023/02/22 01:17:22;;;;;;;12.70;4.83;;;7.90;48.80;;;;;;5028755;28;20480;-79
2023/02/22 01:19:51;;;;;;;27.53;6.50;;;7.90;99.90;;;;;;5028482;28;20482;-80
2023/02/22 01:22:18;;;;;;;16.53;4.50;;;7.90;99.90;;;;;;5026928;28;20427;-80
2023/02/22 01:24:45;;;;;;;17.13;4.50;;;7.90;99.90;;;;;;5024987;28;20479;-81
2023/02/22 01:27:12;;;;;;;26.77;7.10;;;7.90;99.90;;;;;;5022964;28;20572;-80
2023/02/22 01:29:40;;;;;;;18.07;4.07;;;8.00;1.00;;;;;;5019830;28;20523;-79
2023/02/22 01:32:07;;;;;;;16.70;5.30;;;7.90;1.00;;;;;;5019451;28;20450;-79
2023/02/22 01:34:34;;;;;;;19.57;6.40;;;7.90;1.00;;;;;;5021241;28;20510;-79
2023/02/22 01:37:02;;;;;;;14.43;4.63;;;7.90;1.00;;;;;;5018330;28;20464;-81
2023/02/22 01:39:29;;;;;;;16.43;5.60;;;7.90;99.90;;;;;;5017589;28;20491;-78
2023/02/22 01:41:57;;;;;;;18.03;4.90;;;8.10;1.00;;;;;;5016581;28;20435;-79
2023/02/22 01:44:28;;;;;;;12.00;5.10;;;7.80;1.00;;;;;;5017721;28;20475;-80
2023/02/22 01:46:56;;;;;;;16.60;4.57;;;7.70;1.00;;;;;;5017790;28;20476;-80
2023/02/22 01:49:25;;;;;;;13.10;4.17;;;7.60;1.00;;;;;;5017495;28;20854;-79
2023/02/22 01:51:55;;;;;;;15.33;4.87;;;7.60;1.00;;;;;;5018159;28;20528;-81
2023/02/22 01:54:28;;;;;;;8.83;3.57;;;7.60;49.30;;;;;;5018326;28;20451;-81
2023/02/22 01:57:04;;;;;;;15.93;4.87;;;7.50;1.00;;;;;;5043291;22;20484;-81
2023/02/22 01:59:35;;;;;;;19.70;4.67;;;7.60;99.90;;;;;;5028220;28;20465;-81
2023/02/22 02:02:03;;;;;;;19.67;4.20;;;7.40;99.90;;;;;;5026086;28;20434;-81
2023/02/22 02:04:32;;;;;;;19.33;5.73;;;7.40;99.90;;;;;;5025674;28;21030;-80
2023/02/22 02:07:02;;;;;;;14.90;5.70;;;7.30;99.90;;;;;;5024199;28;20449;-80
2023/02/22 02:09:35;;;;;;;20.63;5.63;;;7.20;99.90;;;;;;5024410;28;20430;-81
2023/02/22 02:12:05;;;;;;;24.33;5.30;;;7.10;99.90;;;;;;5024155;28;20424;-80
2023/02/22 02:14:32;;;;;;;11.73;4.70;;;7.20;1.00;;;;;;5020780;28;20972;-81
2023/02/22 02:17:01;;;;;;;13.57;3.83;;;7.20;1.00;;;;;;5020556;28;20509;-81
2023/02/22 02:19:38;;;;;;;11.53;4.27;;;7.20;1.00;;;;;;5025376;28;20427;-80
2023/02/22 02:22:27;;;;;;;13.67;4.80;;;7.10;1.00;;;;;;5026437;28;20437;-80
2023/02/22 02:25:36;;;;;;;20.67;5.30;;;7.20;1.00;;;;;;5027173;28;20437;-81
2023/02/22 02:28:37;;;;;;;12.30;4.80;;;7.20;1.00;;;;;;5027631;28;20240;-81
2023/02/22 02:31:29;;;;;;;16.80;5.63;;;7.20;1.00;;;;;;5030856;28;20266;-81
2023/02/22 02:34:04;;;;;;;15.90;6.83;;;7.20;1.00;;;;;;5031266;28;20446;-81
2023/02/22 02:36:35;;;;;;;15.00;6.23;;;7.20;1.00;;;;;;5028152;28;20479;-81
2023/02/22 02:39:09;;;;;;;17.03;5.03;;;7.20;1.00;;;;;;5029132;28;20475;-81
2023/02/22 02:41:39;;;;;;;19.27;6.78;;;7.20;1.00;;;;;;5029294;28;21033;-81
2023/02/22 02:44:13;;;;;;;19.20;5.93;;;7.20;1.00;;;;;;5029817;28;20190;-81
2023/02/22 02:46:47;;;;;;;10.77;4.80;;;6.90;99.90;;;;;;5030237;28;20464;-82
2023/02/22 02:49:22;;;;;;;22.33;6.57;;;7.40;99.90;;;;;;5029682;28;20505;-81
2023/02/22 02:51:52;;;;;;;11.15;5.43;;;7.20;54.80;;;;;;5024904;28;20190;-82
2023/02/22 02:54:20;;;;;;;20.60;4.80;;;7.20;56.40;;;;;;5021272;28;20638;-81
2023/02/22 02:56:48;;;;;;;22.15;6.38;;;7.10;98.50;;;;;;5021479;28;20241;-81
2023/02/22 02:59:26;;;;;;;14.77;6.10;;;7.10;99.90;;;;;;5022336;28;20273;-81
2023/02/22 03:02:05;;;;;;;16.10;5.53;;;7.00;99.90;;;;;;5020343;28;20488;-81
2023/02/22 03:04:58;;;;;;;28.53;5.60;;;7.20;99.90;;;;;;5019648;28;20504;-82
2023/02/22 03:07:34;;;;;;;19.20;5.93;;;7.00;99.90;;;;;;5016689;28;20489;-82
2023/02/22 03:10:13;;;;;;;17.25;7.60;;;7.00;99.90;;;;;;5018766;28;20206;-83
2023/02/22 03:12:48;;;;;;;17.08;5.70;;;6.90;99.90;;;;;;5018873;28;20199;-81
2023/02/22 03:15:26;;;;;;;17.80;6.45;;;6.10;99.90;;;;;;5026401;28;20197;-82
2023/02/22 03:18:00;;;;;;;11.00;5.85;;;6.80;99.90;;;;;;5033818;28;20252;-82
2023/02/22 03:20:34;;;;;;;15.82;4.90;;;6.90;99.90;;;;;;5033129;28;20245;-82
2023/02/22 03:23:07;;;;;;;26.77;6.22;;;6.80;99.90;;;;;;5033516;28;20224;-82
2023/02/22 03:25:38;;;;;;;22.67;5.90;;;6.80;99.90;;;;;;5026324;28;20216;-82
2023/02/22 03:28:10;;;;;;;27.92;6.13;;;6.90;99.90;;;;;;5023465;28;20312;-82
2023/02/22 03:30:40;;;;;;;24.27;6.93;;;6.90;99.90;;;;;;5026811;28;20181;-82
2023/02/22 03:33:11;;;;;;;18.48;6.45;;;7.00;99.90;;;;;;5027439;28;20194;-82
2023/02/22 03:35:44;;;;;;;12.90;6.15;;;7.00;99.90;;;;;;5022531;28;20280;-81
2023/02/22 03:38:15;;;;;;;26.40;6.25;;;7.00;99.90;;;;;;5019748;28;20320;-82
2023/02/22 03:40:45;;;;;;;17.67;5.70;;;7.00;99.90;;;;;;5019790;28;20205;-82
2023/02/22 03:43:15;;;;;;;25.45;6.47;;;7.00;99.90;;;;;;5020170;28;20206;-81
2023/02/22 03:45:44;;;;;;;20.52;4.97;;;6.90;99.90;;;;;;5024015;28;20191;-81
2023/02/22 03:48:19;;;;;;;19.10;6.75;;;6.90;99.90;;;;;;5038311;28;20244;-81
2023/02/22 03:50:49;;;;;;;13.40;6.45;;;7.00;1.00;;;;;;5026479;28;20194;-81
2023/02/22 03:53:18;;;;;;;16.08;4.90;;;7.00;99.90;;;;;;5025345;28;20193;-81
2023/02/22 03:55:46;;;;;;;11.63;5.00;;;6.90;99.90;;;;;;5023116;28;20590;-81
2023/02/22 03:58:14;;;;;;;17.48;5.10;;;6.90;99.90;;;;;;5020399;28;20238;-81
2023/02/22 04:00:43;;;;;;;17.58;5.80;;;7.00;1.00;;;;;;5020868;28;20721;-81
2023/02/22 04:03:10;;;;;;;17.80;6.20;;;7.00;1.00;;;;;;5022959;28;20206;-81
2023/02/22 04:05:37;;;;;;;19.05;5.50;;;7.00;1.00;;;;;;5023648;28;20458;-82
2023/02/22 04:08:06;;;;;;;18.58;5.43;;;7.00;1.00;;;;;;5022553;28;20590;-82
2023/02/22 04:10:33;;;;;;;21.77;7.77;;;7.00;1.00;;;;;;5024024;28;20618;-82
2023/02/22 04:13:00;;;;;;;26.33;5.22;;;7.00;1.00;;;;;;5031260;28;20456;-81
2023/02/22 04:15:27;;;;;;;16.10;7.13;;;7.00;1.00;;;;;;5031060;28;20232;-81
2023/02/22 04:17:53;;;;;;;16.43;6.37;;;6.90;1.00;;;;;;5033629;28;20500;-80
2023/02/22 04:20:24;;;;;;;15.77;5.32;;;6.90;1.00;;;;;;5027258;28;20487;-80
2023/02/22 04:22:51;;;;;;;16.07;6.93;;;6.90;1.00;;;;;;5023266;28;20656;-82
2023/02/22 04:25:19;;;;;;;17.17;6.10;;;6.90;1.00;;;;;;5023893;28;20459;-81
2023/02/22 04:27:46;;;;;;;24.75;6.93;;;6.90;1.00;;;;;;5023654;28;20468;-81
2023/02/22 04:30:13;;;;;;;21.73;5.95;;;6.90;1.00;;;;;;5022027;28;20676;-81
2023/02/22 04:32:40;;;;;;;15.52;6.07;;;6.90;1.00;;;;;;5021146;28;20224;-80
2023/02/22 04:35:08;;;;;;;12.50;6.60;;;6.90;1.00;;;;;;5020892;28;20202;-81
2023/02/22 04:37:35;;;;;;;25.77;6.80;;;7.00;1.00;;;;;;5021450;28;20225;-81
2023/02/22 04:40:02;;;;;;;13.43;5.40;;;7.00;1.00;;;;;;5021376;28;20451;-81
2023/02/22 04:42:30;;;;;;;16.10;7.43;;;7.20;1.00;;;;;;5021870;28;20210;-82
2023/02/22 04:44:57;;;;;;;16.83;5.70;;;6.90;1.00;;;;;;5022700;28;20448;-81
2023/02/22 04:47:24;;;;;;;21.50;6.10;;;6.90;1.00;;;;;;5030324;28;20293;-81
2023/02/22 04:49:51;;;;;;;22.93;7.27;;;6.90;1.00;;;;;;5033837;28;20454;-82
2023/02/22 04:52:18;;;;;;;14.03;5.80;;;6.90;1.00;;;;;;5036840;28;20454;-81
2023/02/22 04:54:45;;;;;;;24.88;6.72;;;7.20;1.00;;;;;;5031761;28;20519;-81
2023/02/22 04:57:12;;;;;;;14.80;6.45;;;6.90;1.00;;;;;;5022199;28;20747;-82
2023/02/22 04:59:40;;;;;;;17.83;7.23;;;7.00;1.00;;;;;;5021891;28;20207;-81
2023/02/22 05:02:08;;;;;;;19.40;7.80;;;7.00;1.00;;;;;;5021393;28;20480;-81
2023/02/22 05:04:37;;;;;;;17.60;8.17;;;7.00;1.00;;;;;;5021097;28;20471;-81
2023/02/22 05:07:04;;;;;;;15.73;7.23;;;7.10;1.00;;;;;;5021382;28;20443;-81
2023/02/22 05:09:30;;;;;;;18.00;6.27;;;7.10;1.00;;;;;;5021408;28;20458;-80
2023/02/22 05:11:57;;;;;;;18.20;7.50;;;7.20;1.00;;;;;;5025091;28;20493;-80
2023/02/22 05:14:25;;;;;;;18.77;5.85;;;7.10;1.00;;;;;;5041175;28;20270;-80
2023/02/22 05:16:54;;;;;;;15.27;6.50;;;7.00;1.00;;;;;;5040693;28;20233;-81
2023/02/22 05:19:21;;;;;;;19.58;6.53;;;7.00;1.00;;;;;;5037342;28;20511;-81
2023/02/22 05:21:48;;;;;;;20.65;6.47;;;6.90;1.00;;;;;;5022447;28;20703;-80
2023/02/22 05:24:15;;;;;;;28.70;6.00;;;6.90;1.00;;;;;;5022170;28;20305;-82
2023/02/22 05:26:43;;;;;;;14.43;6.10;;;6.80;1.00;;;;;;5021829;28;20452;-80
2023/02/22 05:29:10;;;;;;;18.17;5.97;;;7.00;1.00;;;;;;5020549;28;20221;-81
2023/02/22 05:31:37;;;;;;;14.93;5.73;;;7.00;1.00;;;;;;5021031;28;20510;-81
2023/02/22 05:34:05;;;;;;;20.13;6.47;;;7.00;1.00;;;;;;5021369;28;20455;-81
2023/02/22 05:36:32;;;;;;;15.55;5.95;;;7.00;1.00;;;;;;5022373;28;20485;-81
2023/02/22 05:38:59;;;;;;;15.25;5.25;;;6.90;1.00;;;;;;5023075;28;20278;-81
2023/02/22 05:41:25;;;;;;;16.55;6.00;;;6.90;1.00;;;;;;5023748;28;20284;-81
2023/02/22 05:43:52;;;;;;;16.00;6.65;;;6.70;1.00;;;;;;5024140;28;20296;-81
2023/02/22 05:46:19;;;;;;;19.83;5.63;;;6.90;1.00;;;;;;5022460;28;20641;-81
2023/02/22 05:48:46;;;;;;;19.27;5.72;;;6.80;1.00;;;;;;5021614;28;20228;-81
2023/02/22 05:51:14;;;;;;;18.63;6.03;;;6.90;1.00;;;;;;5021333;28;20680;-80
2023/02/22 05:53:41;;;;;;;19.13;6.67;;;6.90;1.00;;;;;;5021334;28;20265;-80
2023/02/22 05:56:08;;;;;;;21.25;5.28;;;7.00;1.00;;;;;;5029575;28;20444;-81
2023/02/22 05:58:35;;;;;;;22.63;7.13;;;7.00;1.00;;;;;;5029618;28;20293;-81
2023/02/22 06:01:01;;;;;;;10.97;5.50;;;7.00;1.00;;;;;;5031410;28;20593;-81
2023/02/22 06:03:28;;;;;;;13.73;5.47;;;7.10;1.00;;;;;;5022599;28;20768;-82
2023/02/22 06:05:55;;;;;;;27.08;6.75;;;7.10;1.00;;;;;;5021630;28;20455;-80
2023/02/22 06:08:23;;;;;;;18.52;6.45;;;7.00;1.00;;;;;;5020560;28;20242;-81
2023/02/22 06:10:50;;;;;;;11.95;5.70;;;7.00;1.00;;;;;;5025216;28;20202;-81
2023/02/22 06:13:17;;;;;;;18.38;5.85;;;7.00;1.00;;;;;;5029695;28;20206;-81
2023/02/22 06:15:43;;;;;;;20.90;6.43;;;7.00;1.00;;;;;;5029770;28;20213;-80
2023/02/22 06:18:10;;;;;;;17.47;6.30;;;7.00;1.00;;;;;;5024639;28;20468;-81
2023/02/22 06:20:37;;;;;;;17.00;5.63;;;7.00;1.00;;;;;;5020893;28;20426;-81
2023/02/22 06:23:04;;;;;;;17.48;6.85;;;7.00;1.00;;;;;;5022508;28;20202;-82
2023/02/22 06:25:32;;;;;;;27.13;6.87;;;7.10;1.00;;;;;;5026425;28;20206;-80
2023/02/22 06:28:00;;;;;;;23.40;6.47;;;7.10;1.00;;;;;;5033208;28;20552;-81
2023/02/22 06:30:28;;;;;;;25.00;8.52;;;6.90;1.00;;;;;;5031625;28;20503;-82
2023/02/22 06:32:56;;;;;;;35.00;14.63;;;;;;;;;;5025498;28;20219;-81
2023/02/22 06:35:23;;;;;;;24.17;10.77;;;6.90;1.00;;;;;;5021957;28;20448;-81
2023/02/22 06:37:50;;;;;;;16.30;7.70;;;7.20;99.90;;;;;;5019611;28;20505;-81
2023/02/22 06:40:17;;;;;;;21.97;7.10;;;7.10;99.90;;;;;;5020344;28;20449;-82
2023/02/22 06:42:48;;;;;;;19.40;6.33;;;7.20;99.90;;;;;;5020075;28;20841;-82
2023/02/22 06:45:17;;;;;;;14.23;6.53;;;7.20;99.90;;;;;;5020798;28;20812;-82
2023/02/22 06:47:43;;;;;;;30.50;6.60;;;7.10;99.90;;;;;;5031405;28;20229;-82
2023/02/22 06:50:19;;;;;;;15.83;6.77;;;7.20;99.90;;;;;;5032875;28;20473;-80
2023/02/22 06:52:47;;;;;;;20.07;6.70;;;7.00;1.00;;;;;;5029085;28;20414;-81
2023/02/22 06:55:17;;;;;;;22.35;7.25;;;7.20;99.90;;;;;;5021017;28;20433;-81
2023/02/22 06:57:45;;;;;;;25.53;6.90;;;7.20;99.90;;;;;;5020210;28;20236;-81
2023/02/22 07:00:14;;;;;;;23.10;7.20;;;7.20;99.90;;;;;;5031320;28;20516;-82
2023/02/22 07:02:42;;;;;;;18.80;6.50;;;7.30;99.90;;;;;;5037537;28;20218;-81
2023/02/22 07:05:10;;;;;;;15.00;6.45;;;7.30;99.90;;;;;;5025412;28;20490;-81
2023/02/22 07:07:38;;;;;;;19.55;6.10;;;7.40;99.90;;;;;;5028901;28;20232;-81
2023/02/22 07:10:07;;;;;;;14.60;6.55;;;7.40;99.90;;;;;;5023254;28;20196;-81
2023/02/22 07:12:33;;;;;;;22.52;6.80;;;7.40;99.90;;;;;;5022417;28;20206;-81
2023/02/22 07:15:02;;;;;;;24.50;7.13;;;7.30;99.90;;;;;;5021251;28;20209;-82
2023/02/22 07:17:29;;;;;;;20.20;7.53;;;7.30;99.90;;;;;;5024679;28;20531;-82
2023/02/22 07:19:56;;;;;;;18.42;6.60;;;7.20;99.90;;;;;;5025864;28;20237;-82
2023/02/22 07:22:22;;;;;;;14.63;6.80;;;7.20;99.90;;;;;;5026563;28;20246;-81
2023/02/22 07:24:49;;;;;;;18.67;7.83;;;7.30;99.90;;;;;;5020834;28;20964;-81
2023/02/22 07:27:16;;;;;;;21.48;8.73;;;7.30;99.90;;;;;;5022484;28;20493;-81
2023/02/22 07:29:43;;;;;;;24.23;9.10;;;6.90;99.90;;;;;;5030974;28;20240;-81
2023/02/22 07:32:11;;;;;;;28.05;9.63;;;7.20;99.90;;;;;;5031269;28;20296;-81
2023/02/22 07:34:38;;;;;;;19.73;8.30;;;7.20;99.90;;;;;;5028287;28;20209;-81
2023/02/22 07:37:05;;;;;;;26.80;8.70;;;7.30;99.90;;;;;;5029187;28;20509;-81
2023/02/22 07:39:33;;;;;;;28.47;14.27;;;7.40;99.90;;;;;;5028487;28;20240;-81
2023/02/22 07:42:00;;;;;;;29.97;11.73;;;7.40;99.90;;;;;;5028482;28;20937;-81
2023/02/22 07:44:26;;;;;;;32.97;13.73;;;7.40;99.90;;;;;;5030042;28;20433;-81
2023/02/22 07:46:53;;;;;;;25.23;10.60;;;7.40;99.90;;;;;;5028763;28;20559;-81
2023/02/22 07:49:21;;;;;;;29.50;10.63;;;7.50;43.70;;;;;;5028738;28;20488;-81
2023/02/22 07:51:49;;;;;;;19.67;8.47;;;7.40;1.00;;;;;;5027712;28;20499;-82
2023/02/22 07:54:15;;;;;;;24.33;8.13;;;7.40;1.00;;;;;;5026352;28;20491;-81
2023/02/22 07:56:46;;;;;;;17.43;7.40;;;7.70;1.00;;;;;;5023879;28;20212;-83
2023/02/22 07:59:13;;;;;;;20.07;7.90;;;7.40;1.00;;;;;;5025197;28;20403;-82
2023/02/22 08:01:40;;;;;;;18.23;7.53;;;7.40;1.00;;;;;;5032822;28;20552;-81
2023/02/22 08:04:07;;;;;;;28.93;7.80;;;7.50;1.00;;;;;;5043192;28;20486;-83
2023/02/22 08:06:36;;;;;;;12.27;7.17;;;7.20;1.00;;;;;;5040354;28;20512;-84
2023/02/22 08:09:02;;;;;;;24.53;8.17;;;7.50;1.00;;;;;;5037883;28;20486;-84
2023/02/22 08:11:29;;;;;;;27.05;7.38;;;7.50;1.00;;;;;;5036389;28;20543;-84
2023/02/22 08:13:56;;;;;;;30.57;9.37;;;7.60;15.70;;;;;;5033420;28;20212;-84
2023/02/22 08:16:23;;;;;;;19.30;6.80;;;7.40;1.00;;;;;;5031969;28;20548;-84
2023/02/22 08:18:50;;;;;;;19.05;7.82;;;7.50;1.00;;;;;;5032075;28;20476;-83
2023/02/22 08:21:17;;;;;;;27.73;8.85;;;7.50;1.00;;;;;;5032095;28;20213;-84
2023/02/22 08:23:45;;;;;;;23.37;7.90;;;7.70;1.00;;;;;;5031762;28;20205;-84
2023/02/22 08:26:17;;;;;;;24.60;9.37;;;7.60;99.90;;;;;;5031497;28;20519;-85
2023/02/22 08:28:44;;;;;;;18.10;8.80;;;7.80;99.90;;;;;;5031872;28;20499;-85
2023/02/22 08:31:11;;;;;;;17.23;7.57;;;7.70;99.90;;;;;;5031677;28;20455;-84
2023/02/22 08:33:37;;;;;;;18.50;8.80;;;7.80;1.00;;;;;;5034040;28;20443;-85
2023/02/22 08:36:05;;;;;;;29.83;10.07;;;7.70;99.90;;;;;;5038161;28;20517;-84
2023/02/22 08:38:32;;;;;;;21.30;9.40;;;7.80;99.90;;;;;;5036576;28;20447;-84
2023/02/22 08:41:01;;;;;;;18.03;6.80;;;7.80;99.90;;;;;;5035718;28;20472;-84
2023/02/22 08:43:28;;;;;;;15.87;6.90;;;7.90;3.90;;;;;;5034819;28;20527;-84
2023/02/22 08:45:55;;;;;;;13.10;6.87;;;8.00;1.00;;;;;;5034481;28;20412;-84
2023/02/22 08:48:22;;;;;;;26.70;7.63;;;8.00;1.00;;;;;;5033437;28;20529;-84
2023/02/22 08:50:48;;;;;;;21.57;8.27;;;8.10;99.90;;;;;;5036039;28;20456;-84
2023/02/22 08:53:16;;;;;;;18.20;7.10;;;8.10;99.90;;;;;;5034799;28;20465;-83
2023/02/22 08:55:43;;;;;;;27.97;7.17;;;8.10;99.90;;;;;;5033736;28;20442;-84
2023/02/22 08:58:12;;;;;;;25.13;7.07;;;8.10;99.90;;;;;;5032148;28;20455;-83
2023/02/22 09:00:40;;;;;;;26.37;7.30;;;8.20;1.00;;;;;;5031910;28;20540;-84
2023/02/22 09:03:09;;;;;;;24.50;7.30;;;8.20;1.00;;;;;;5031826;28;20543;-84
2023/02/22 09:05:37;;;;;;;17.63;5.63;;;8.30;1.00;;;;;;5032615;28;20518;-84
2023/02/22 09:08:04;;;;;;;15.33;6.73;;;8.40;99.90;;;;;;5031126;28;20475;-84
2023/02/22 09:10:35;;;;;;;22.73;6.77;;;8.40;1.00;;;;;;5030306;28;20464;-84
2023/02/22 09:13:02;;;;;;;17.00;7.77;;;8.50;82.70;;;;;;5030935;28;20404;-83
2023/02/22 09:15:32;;;;;;;10.20;4.67;;;8.40;76.30;;;;;;5031854;28;20438;-83
2023/02/22 09:18:00;;;;;;;12.70;5.27;;;8.60;1.00;;;;;;5029166;28;20481;-83
2023/02/22 09:20:28;;;;;;;12.67;5.00;;;8.60;99.90;;;;;;5027136;28;20492;-83
2023/02/22 09:22:55;;;;;;;19.03;5.83;;;8.50;99.90;;;;;;5032229;28;20483;-82
2023/02/22 09:25:22;;;;;;;20.77;5.20;;;8.50;99.90;;;;;;5039674;28;20457;-83
2023/02/22 09:27:50;;;;;;;17.47;7.50;;;8.60;99.90;;;;;;5040251;28;20538;-83
2023/02/22 09:30:22;;;;;;;12.60;5.23;;;8.70;1.00;;;;;;5038942;28;20424;-83
2023/02/22 09:32:51;;;;;;;14.50;5.13;;;8.80;99.90;;;;;;5032363;28;20437;-83
2023/02/22 09:35:18;;;;;;;12.50;4.77;;;8.70;99.90;;;;;;5029578;28;20408;-83
2023/02/22 09:37:45;;;;;;;17.00;5.43;;;8.80;99.90;;;;;;5026012;28;20487;-84
2023/02/22 09:40:23;;;;;;;11.77;5.30;;;8.90;2.50;;;;;;5024796;28;20473;-84
2023/02/22 09:42:58;;;;;;;14.57;5.10;;;8.80;1.00;;;;;;5024459;28;20447;-85
2023/02/22 09:45:33;;;;;;;21.63;7.60;;;8.70;68.40;;;;;;5025198;28;20408;-85
2023/02/22 09:48:06;;;;;;;18.30;5.80;;;8.80;99.90;;;;;;5025302;28;20541;-84
2023/02/22 09:50:35;;;;;;;13.27;6.03;;;8.80;99.90;;;;;;5025628;28;20475;-84
2023/02/22 09:53:05;;;;;;;14.93;6.90;;;8.80;99.90;;;;;;5027870;28;20819;-84
2023/02/22 09:55:36;;;;;;;14.13;5.30;;;8.80;99.90;;;;;;5026829;28;20420;-84
2023/02/22 09:58:13;;;;;;;20.27;5.20;;;8.90;99.90;;;;;;5032006;28;20460;-83
2023/02/22 10:00:43;;;;;;;20.33;4.83;;;9.20;99.90;;;;;;5040098;28;20480;-83
2023/02/22 10:03:21;;;;;;;17.83;5.70;;;9.10;99.90;;;;;;5039982;28;20466;-83
2023/02/22 10:05:55;;;;;;;22.23;7.30;;;8.90;10.60;;;;;;5032461;28;20496;-84
2023/02/22 10:08:28;;;;;;;18.30;5.00;;;9.00;2.60;;;;;;5022542;28;20476;-84
2023/02/22 10:11:05;;;;;;;19.73;5.40;;;8.90;7.50;;;;;;5024057;28;20408;-84
2023/02/22 10:13:41;;;;;;;16.33;4.90;;;8.90;3.10;;;;;;5026117;28;20400;-84
2023/02/22 10:16:13;;;;;;;16.53;5.40;;;9.00;1.00;;;;;;5029837;28;20425;-83
2023/02/22 10:19:13;;;;;;;26.53;7.63;;;9.10;99.90;;;;;;5035418;28;20480;-85
2023/02/22 10:22:03;;;;;;;15.83;4.90;;;9.10;1.00;;;;;;5023449;28;20427;-85
2023/02/22 10:24:44;;;;;;;17.77;6.17;;;9.20;1.00;;;;;;5022442;28;20484;-85
2023/02/22 10:27:17;;;;;;;23.10;6.10;;;9.20;1.00;;;;;;5023019;28;20477;-84
2023/02/22 10:29:47;;;;;;;18.90;6.30;;;9.20;1.00;;;;;;5022763;28;20954;-84
2023/02/22 10:32:20;;;;;;;20.13;6.03;;;9.40;1.00;;;;;;5024848;28;20470;-85
2023/02/22 10:34:50;;;;;;;14.70;5.00;;;9.30;1.00;;;;;;5023541;28;20457;-85
2023/02/22 10:37:24;;;;;;;17.27;6.47;;;9.20;1.00;;;;;;5020857;28;20470;-84
2023/02/22 10:39:58;;;;;;;23.77;6.37;;;9.30;1.00;;;;;;5023576;28;20449;-85
2023/02/22 10:42:27;;;;;;;15.77;5.67;;;9.20;1.00;;;;;;5025482;28;20451;-84
2023/02/22 10:44:54;;;;;;;17.30;6.00;;;9.80;99.90;;;;;;5026944;28;20446;-84
2023/02/22 10:47:22;;;;;;;16.00;4.90;;;9.60;75.30;;;;;;5026400;28;20546;-84
2023/02/22 10:49:54;;;;;;;17.40;5.77;;;9.60;1.00;;;;;;5027245;28;20453;-83
2023/02/22 10:52:26;;;;;;;15.37;5.43;;;9.60;1.00;;;;;;5027218;28;20936;-83
2023/02/22 10:54:55;;;;;;;14.33;5.43;;;9.50;1.00;;;;;;5028069;28;20460;-83
2023/02/22 10:57:25;;;;;;;13.13;5.67;;;9.10;1.00;;;;;;5029415;28;20477;-84
2023/02/22 10:59:55;;;;;;;14.17;4.80;;;9.10;1.00;;;;;;5031308;28;20461;-84
2023/02/22 11:02:24;;;;;;;15.50;6.33;;;9.30;1.00;;;;;;5035150;28;20474;-83
2023/02/22 11:04:53;;;;;;;21.97;7.03;;;9.30;99.90;;;;;;5035066;28;20604;-84
2023/02/22 11:07:26;;;;;;;15.50;5.73;;;9.40;99.90;;;;;;5034944;28;20507;-84
2023/02/22 11:09:55;;;;;;;10.63;5.60;;;9.20;99.90;;;;;;5033967;28;20413;-83
2023/02/22 11:12:27;;;;;;;17.40;4.80;;;9.30;1.00;;;;;;5033344;28;20455;-83
2023/02/22 11:18:35;;;;;;;18.67;5.67;;;8.90;1.00;;;;;;4935131;29;20416;-84
2023/02/22 11:21:06;;;;;;;12.70;5.33;;;9.30;99.90;;;;;;5018895;28;20438;-84
2023/02/22 11:23:36;;;;;;;14.27;4.17;;;9.30;99.90;;;;;;5030648;28;20482;-84
2023/02/22 11:26:08;;;;;;;23.57;4.80;;;9.30;99.90;;;;;;5024834;28;20441;-84
2023/02/22 11:28:36;;;;;;;15.70;6.03;;;9.30;99.90;;;;;;5025096;28;20452;-84
2023/02/22 11:31:14;;;;;;;17.50;5.33;;;9.40;99.90;;;;;;5025410;28;20850;-84
2023/02/22 11:33:51;;;;;;;24.83;5.50;;;9.40;99.90;;;;;;5024749;28;20518;-84
2023/02/22 11:36:30;;;;;;;15.77;5.50;;;9.40;99.90;;;;;;5026066;28;20512;-84
2023/02/22 11:38:59;;;;;;;12.80;4.33;;;9.40;99.90;;;;;;5032599;28;20469;-84
2023/02/22 11:41:29;;;;;;;26.13;7.77;;;9.60;1.00;;;;;;5031768;28;20433;-84
2023/02/22 11:44:13;;;;;;;10.30;3.80;;;9.60;99.90;;;;;;5033949;28;20509;-84
2023/02/22 11:46:42;;;;;;;17.40;5.17;;;9.30;1.00;;;;;;5036488;28;20481;-84
2023/02/22 11:49:11;;;;;;;19.37;4.80;;;9.60;1.00;;;;;;5034732;28;20438;-83
2023/02/22 11:51:52;;;;;;;9.60;3.70;;;9.50;99.90;;;;;;5032428;28;20446;-83
2023/02/22 11:54:47;;;;;;;16.00;4.67;;;9.30;99.90;;;;;;5032996;28;20526;-84
2023/02/22 11:57:25;;;;;;;14.27;4.73;;;9.30;99.90;;;;;;5029698;28;20569;-84
2023/02/22 12:00:08;;;;;;;12.10;4.13;;;9.40;99.90;;;;;;5027084;28;20432;-84
2023/02/22 12:02:53;;;;;;;13.93;3.97;;;9.40;99.90;;;;;;5027621;28;20452;-84
2023/02/22 12:05:36;;;;;;;12.90;4.10;;;9.60;99.90;;;;;;5026658;28;20862;-84
2023/02/22 12:08:19;;;;;;;9.80;5.00;;;9.70;99.90;;;;;;5026693;28;20472;-83
2023/02/22 12:10:57;;;;;;;21.63;6.10;;;9.80;99.90;;;;;;5034382;28;20488;-83
2023/02/22 12:13:42;;;;;;;12.13;4.63;;;9.70;99.90;;;;;;5033781;28;20461;-83
2023/02/22 12:16:19;;;;;;;15.37;5.27;;;9.50;99.90;;;;;;5032242;28;20422;-84
2023/02/22 12:19:04;;;;;;;18.47;4.87;;;9.70;99.90;;;;;;5026564;28;20894;-83
2023/02/22 12:21:34;;;;;;;15.17;4.10;;;9.70;99.90;;;;;;5025599;28;20438;-83
2023/02/22 12:24:06;;;;;;;15.07;4.20;;;9.60;99.90;;;;;;5031386;28;20942;-83
2023/02/22 12:26:37;;;;;;;14.13;4.33;;;9.30;99.90;;;;;;5031300;28;20441;-84
2023/02/22 12:29:11;;;;;;;16.53;4.83;;;9.70;99.90;;;;;;5028183;28;20539;-85
2023/02/22 12:31:44;;;;;;;17.43;4.90;;;9.80;99.90;;;;;;5027880;28;20448;-83
2023/02/22 12:34:20;;;;;;;11.97;3.13;;;9.70;99.90;;;;;;5028243;28;20477;-84
2023/02/22 12:36:51;;;;;;;10.57;3.83;;;9.80;99.90;;;;;;5028337;28;20465;-84
2023/02/22 12:39:33;;;;;;;12.73;5.93;;;9.90;99.90;;;;;;5027788;28;20438;-84
2023/02/22 12:42:11;;;;;;;17.60;4.50;;;9.90;99.90;;;;;;5027739;28;20432;-85
2023/02/22 12:44:42;;;;;;;17.07;4.57;;;9.90;99.90;;;;;;5027103;28;20516;-84
2023/02/22 12:47:18;;;;;;;13.73;3.77;;;9.90;95.20;;;;;;5027392;28;20516;-84
2023/02/22 12:49:51;;;;;;;14.40;4.03;;;9.90;73.20;;;;;;5022367;28;20451;-85
2023/02/22 12:52:33;;;;;;;12.67;3.90;;;9.80;57.80;;;;;;5024770;28;20448;-85
2023/02/22 12:55:09;;;;;;;8.13;3.70;;;9.80;53.00;;;;;;5026751;28;20421;-84
2023/02/22 12:57:43;;;;;;;11.33;4.00;;;9.90;29.90;;;;;;5026415;28;20511;-84
2023/02/22 13:00:19;;;;;;;14.90;4.50;;;9.80;28.60;;;;;;5033132;28;20437;-84
2023/02/22 13:02:50;;;;;;;13.67;3.87;;;9.80;31.10;;;;;;5028255;28;20432;-84
2023/02/22 13:05:19;;;;;;;14.43;4.60;;;9.90;32.40;;;;;;5028512;28;20875;-84
2023/02/22 13:07:54;;;;;;;9.77;3.60;;;10.10;28.90;;;;;;5027461;28;20470;-84
2023/02/22 13:10:35;;;;;;;18.93;6.10;;;10.10;10.70;;;;;;5027229;28;20404;-84
2023/02/22 13:13:11;;;;;;;14.50;3.80;;;10.00;35.90;;;;;;5027375;28;20787;-84